Aviation Digital Data Service (ADDS)

Output produced by METARs form (0049 UTC 23 December 2014)
found at http://aviationweather.gov/adds/metars/
 
KBTV 222320Z 2300/2324 32004KT 6SM BR OVC035 
     TEMPO 2304/2307 OVC024 
     FM230700 17006KT 6SM -FZDZSN BR OVC024 
     FM231000 17006KT 5SM -SNRA OVC020 
     FM231500 16009KT 4SM -RA BR OVC030